sensor_id;sensor_type;location;lat;lon;timestamp;pressure;altitude;pressure_sealevel;temperature;humidity
71344;BME280;59146;43.850;25.948;2023-06-24T00:01:26;100930.94;;;25.88;52.32
71344;BME280;59146;43.850;25.948;2023-06-24T00:03:51;100908.22;;;25.69;52.68
71344;BME280;59146;43.850;25.948;2023-06-24T00:06:21;100900.19;;;25.69;52.39
71344;BME280;59146;43.850;25.948;2023-06-24T00:08:50;100892.09;;;25.77;52.44
71344;BME280;59146;43.850;25.948;2023-06-24T00:11:16;100892.00;;;25.85;52.34
71344;BME280;59146;43.850;25.948;2023-06-24T00:13:42;100908.63;;;25.95;52.10
71344;BME280;59146;43.850;25.948;2023-06-24T00:16:08;100806.97;;;25.21;53.43
71344;BME280;59146;43.850;25.948;2023-06-24T00:18:35;100882.03;;;25.79;53.82
71344;BME280;59146;43.850;25.948;2023-06-24T00:21:01;100902.09;;;25.98;54.13
71344;BME280;59146;43.850;25.948;2023-06-24T00:23:28;100851.81;;;25.56;53.14
71344;BME280;59146;43.850;25.948;2023-06-24T00:25:54;100815.09;;;25.28;52.67
71344;BME280;59146;43.850;25.948;2023-06-24T00:28:21;100904.53;;;25.85;52.39
71344;BME280;59146;43.850;25.948;2023-06-24T00:30:47;100750.75;;;24.92;52.41
71344;BME280;59146;43.850;25.948;2023-06-24T00:33:13;100872.78;;;25.67;52.41
71344;BME280;59146;43.850;25.948;2023-06-24T00:35:43;100839.25;;;25.42;52.31
71344;BME280;59146;43.850;25.948;2023-06-24T00:38:08;100837.56;;;25.41;52.18
71344;BME280;59146;43.850;25.948;2023-06-24T00:40:34;100831.25;;;25.34;52.08
71344;BME280;59146;43.850;25.948;2023-06-24T00:43:00;100876.91;;;25.55;52.45
71344;BME280;59146;43.850;25.948;2023-06-24T00:45:27;100862.06;;;25.53;52.55
71344;BME280;59146;43.850;25.948;2023-06-24T00:47:53;100845.63;;;25.33;52.66
71344;BME280;59146;43.850;25.948;2023-06-24T00:50:21;100861.66;;;25.33;52.47
71344;BME280;59146;43.850;25.948;2023-06-24T00:52:46;100855.38;;;25.26;52.19
71344;BME280;59146;43.850;25.948;2023-06-24T00:55:15;100796.81;;;24.94;52.30
71344;BME280;59146;43.850;25.948;2023-06-24T00:57:44;100811.88;;;24.87;52.50
71344;BME280;59146;43.850;25.948;2023-06-24T01:00:11;100869.41;;;25.28;52.45
71344;BME280;59146;43.850;25.948;2023-06-24T01:02:42;100852.03;;;25.01;52.63
71344;BME280;59146;43.850;25.948;2023-06-24T01:05:09;100818.53;;;24.91;52.50
71344;BME280;59146;43.850;25.948;2023-06-24T01:07:37;100868.78;;;25.18;52.54
71344;BME280;59146;43.850;25.948;2023-06-24T01:10:04;100818.91;;;24.88;52.91
71344;BME280;59146;43.850;25.948;2023-06-24T01:12:37;100848.25;;;24.96;52.68
71344;BME280;59146;43.850;25.948;2023-06-24T01:15:10;100775.06;;;24.43;52.84
71344;BME280;59146;43.850;25.948;2023-06-24T01:20:45;100804.13;;;24.69;52.25
71344;BME280;59146;43.850;25.948;2023-06-24T01:23:27;100887.16;;;25.21;52.00
71344;BME280;59146;43.850;25.948;2023-06-24T01:26:31;100888.47;;;25.25;52.33
71344;BME280;59146;43.850;25.948;2023-06-24T01:32:06;100814.63;;;25.01;51.40
71344;BME280;59146;43.850;25.948;2023-06-24T01:34:51;100795.00;;;24.94;51.86
71344;BME280;59146;43.850;25.948;2023-06-24T01:37:44;100860.28;;;25.37;51.02
71344;BME280;59146;43.850;25.948;2023-06-24T01:40:22;100862.44;;;25.19;52.02
71344;BME280;59146;43.850;25.948;2023-06-24T01:42:50;100820.94;;;24.86;51.40
71344;BME280;59146;43.850;25.948;2023-06-24T01:45:32;100830.91;;;24.92;52.75
71344;BME280;59146;43.850;25.948;2023-06-24T01:48:07;100860.50;;;25.13;53.68
71344;BME280;59146;43.850;25.948;2023-06-24T01:50:34;100830.97;;;24.84;51.96
71344;BME280;59146;43.850;25.948;2023-06-24T01:53:04;100768.75;;;24.36;53.95
71344;BME280;59146;43.850;25.948;2023-06-24T01:55:31;100807.81;;;24.68;54.17
71344;BME280;59146;43.850;25.948;2023-06-24T01:57:59;100868.59;;;24.97;53.64
71344;BME280;59146;43.850;25.948;2023-06-24T02:00:27;100886.31;;;24.98;52.64
71344;BME280;59146;43.850;25.948;2023-06-24T02:02:54;100865.50;;;24.85;52.15
71344;BME280;59146;43.850;25.948;2023-06-24T02:05:21;100810.22;;;24.55;52.75
71344;BME280;59146;43.850;25.948;2023-06-24T02:07:48;100873.72;;;24.84;54.15
71344;BME280;59146;43.850;25.948;2023-06-24T02:10:15;100902.03;;;24.93;53.94
71344;BME280;59146;43.850;25.948;2023-06-24T02:12:42;100840.56;;;24.62;53.59
71344;BME280;59146;43.850;25.948;2023-06-24T02:15:09;100853.88;;;24.70;53.99
71344;BME280;59146;43.850;25.948;2023-06-24T02:17:37;100871.91;;;24.68;53.66
71344;BME280;59146;43.850;25.948;2023-06-24T02:20:06;100914.63;;;24.76;54.42
71344;BME280;59146;43.850;25.948;2023-06-24T02:22:34;100867.97;;;24.56;54.42
71344;BME280;59146;43.850;25.948;2023-06-24T02:25:00;100905.50;;;24.63;55.08
71344;BME280;59146;43.850;25.948;2023-06-24T02:27:27;100888.34;;;24.49;54.37
71344;BME280;59146;43.850;25.948;2023-06-24T02:29:53;100859.72;;;24.35;54.18
71344;BME280;59146;43.850;25.948;2023-06-24T02:32:19;100918.81;;;24.71;55.85
71344;BME280;59146;43.850;25.948;2023-06-24T02:34:45;100875.41;;;24.38;55.47
71344;BME280;59146;43.850;25.948;2023-06-24T02:37:10;100918.19;;;24.61;55.02
71344;BME280;59146;43.850;25.948;2023-06-24T02:39:35;100885.56;;;24.34;55.67
71344;BME280;59146;43.850;25.948;2023-06-24T02:42:04;100938.56;;;24.54;56.12
71344;BME280;59146;43.850;25.948;2023-06-24T02:44:29;100913.44;;;24.24;56.07
71344;BME280;59146;43.850;25.948;2023-06-24T02:46:55;100952.16;;;24.36;57.01
71344;BME280;59146;43.850;25.948;2023-06-24T02:49:21;100904.66;;;24.07;56.53
71344;BME280;59146;43.850;25.948;2023-06-24T02:51:47;100886.31;;;24.04;56.16
71344;BME280;59146;43.850;25.948;2023-06-24T02:54:13;100946.13;;;24.42;56.15
71344;BME280;59146;43.850;25.948;2023-06-24T02:56:39;100907.84;;;24.11;56.75
71344;BME280;59146;43.850;25.948;2023-06-24T02:59:09;100823.34;;;23.71;60.45
71344;BME280;59146;43.850;25.948;2023-06-24T03:01:38;100906.81;;;24.12;60.26
71344;BME280;59146;43.850;25.948;2023-06-24T03:04:05;100977.94;;;24.60;60.66
71344;BME280;59146;43.850;25.948;2023-06-24T03:06:32;100958.75;;;24.56;60.32
71344;BME280;59146;43.850;25.948;2023-06-24T03:08:58;100919.69;;;24.55;59.95
71344;BME280;59146;43.850;25.948;2023-06-24T03:11:25;100990.63;;;25.43;60.35
71344;BME280;59146;43.850;25.948;2023-06-24T03:13:51;100989.28;;;25.92;59.79
71344;BME280;59146;43.850;25.948;2023-06-24T03:16:16;100954.94;;;26.33;56.90
71344;BME280;59146;43.850;25.948;2023-06-24T03:18:42;100969.00;;;27.08;53.61
71344;BME280;59146;43.850;25.948;2023-06-24T03:21:10;100975.06;;;27.52;52.73
71344;BME280;59146;43.850;25.948;2023-06-24T03:23:36;100986.84;;;27.94;51.29
71344;BME280;59146;43.850;25.948;2023-06-24T03:26:02;100934.19;;;28.20;48.75
71344;BME280;59146;43.850;25.948;2023-06-24T03:28:32;100958.75;;;28.45;48.43
71344;BME280;59146;43.850;25.948;2023-06-24T03:30:58;101000.91;;;29.13;47.10
71344;BME280;59146;43.850;25.948;2023-06-24T03:33:24;100996.44;;;29.33;46.73
71344;BME280;59146;43.850;25.948;2023-06-24T03:35:51;100969.31;;;29.35;46.19
71344;BME280;59146;43.850;25.948;2023-06-24T03:38:17;100941.78;;;29.33;45.55
71344;BME280;59146;43.850;25.948;2023-06-24T03:40:42;100980.34;;;29.53;45.30
71344;BME280;59146;43.850;25.948;2023-06-24T03:43:09;100981.50;;;29.18;47.05
71344;BME280;59146;43.850;25.948;2023-06-24T03:45:34;100995.38;;;28.87;49.39
71344;BME280;59146;43.850;25.948;2023-06-24T03:48:00;100965.44;;;29.57;47.04
71344;BME280;59146;43.850;25.948;2023-06-24T03:50:25;101012.41;;;29.48;47.61
71344;BME280;59146;43.850;25.948;2023-06-24T03:52:50;100968.59;;;29.06;47.97
71344;BME280;59146;43.850;25.948;2023-06-24T03:55:16;101022.75;;;29.38;48.54
71344;BME280;59146;43.850;25.948;2023-06-24T03:57:41;100965.84;;;29.54;46.94
71344;BME280;59146;43.850;25.948;2023-06-24T04:00:07;101004.00;;;29.64;46.97
71344;BME280;59146;43.850;25.948;2023-06-24T04:02:38;100965.91;;;28.04;50.01
71344;BME280;59146;43.850;25.948;2023-06-24T04:05:04;101011.75;;;27.31;53.31
71344;BME280;59146;43.850;25.948;2023-06-24T04:07:31;101032.34;;;26.95;54.79
71344;BME280;59146;43.850;25.948;2023-06-24T04:09:57;100935.69;;;26.00;56.01
71344;BME280;59146;43.850;25.948;2023-06-24T04:12:23;100967.53;;;26.33;56.04
71344;BME280;59146;43.850;25.948;2023-06-24T04:14:48;101008.47;;;26.56;56.31
71344;BME280;59146;43.850;25.948;2023-06-24T04:17:14;100888.28;;;26.09;53.76
71344;BME280;59146;43.850;25.948;2023-06-24T04:19:39;101027.00;;;27.81;50.88
71344;BME280;59146;43.850;25.948;2023-06-24T04:22:05;100949.94;;;28.98;46.44
71344;BME280;59146;43.850;25.948;2023-06-24T04:24:30;100977.94;;;30.43;43.83
71344;BME280;59146;43.850;25.948;2023-06-24T04:26:57;100963.53;;;30.75;43.13
71344;BME280;59146;43.850;25.948;2023-06-24T04:29:23;100974.50;;;31.38;42.19
71344;BME280;59146;43.850;25.948;2023-06-24T04:31:48;101008.44;;;31.14;44.02
71344;BME280;59146;43.850;25.948;2023-06-24T04:34:14;100944.91;;;30.60;44.57
71344;BME280;59146;43.850;25.948;2023-06-24T04:36:39;100951.53;;;31.22;43.65
71344;BME280;59146;43.850;25.948;2023-06-24T04:39:05;100990.72;;;32.25;41.87
71344;BME280;59146;43.850;25.948;2023-06-24T04:41:30;100942.25;;;32.48;40.62
71344;BME280;59146;43.850;25.948;2023-06-24T04:43:57;100991.16;;;32.22;41.75
71344;BME280;59146;43.850;25.948;2023-06-24T04:46:23;100932.34;;;31.92;41.70
71344;BME280;59146;43.850;25.948;2023-06-24T04:48:48;100917.41;;;31.34;42.37
71344;BME280;59146;43.850;25.948;2023-06-24T04:51:14;100960.78;;;31.70;42.30
71344;BME280;59146;43.850;25.948;2023-06-24T04:53:40;101007.09;;;31.74;42.70
71344;BME280;59146;43.850;25.948;2023-06-24T04:56:05;100983.00;;;31.34;43.58
71344;BME280;59146;43.850;25.948;2023-06-24T04:58:31;100992.63;;;31.17;43.78
71344;BME280;59146;43.850;25.948;2023-06-24T05:00:56;100938.56;;;30.22;45.63
71344;BME280;59146;43.850;25.948;2023-06-24T05:03:22;100988.25;;;30.66;44.14
71344;BME280;59146;43.850;25.948;2023-06-24T05:05:47;101010.56;;;30.99;44.61
71344;BME280;59146;43.850;25.948;2023-06-24T05:08:13;100963.59;;;30.55;44.51
71344;BME280;59146;43.850;25.948;2023-06-24T05:10:38;100933.78;;;30.37;45.13
71344;BME280;59146;43.850;25.948;2023-06-24T05:13:04;101006.50;;;30.64;44.87
71344;BME280;59146;43.850;25.948;2023-06-24T05:15:29;100960.94;;;30.42;45.25
71344;BME280;59146;43.850;25.948;2023-06-24T05:17:55;100980.53;;;30.76;44.15
71344;BME280;59146;43.850;25.948;2023-06-24T05:20:21;100954.63;;;30.75;44.16
71344;BME280;59146;43.850;25.948;2023-06-24T05:22:46;100893.78;;;30.34;42.40
71344;BME280;59146;43.850;25.948;2023-06-24T05:25:12;100991.03;;;31.10;43.57
71344;BME280;59146;43.850;25.948;2023-06-24T05:27:37;101004.88;;;31.20;42.29
71344;BME280;59146;43.850;25.948;2023-06-24T05:30:03;101005.75;;;31.58;40.48
71344;BME280;59146;43.850;25.948;2023-06-24T05:32:28;100877.06;;;30.70;41.07
71344;BME280;59146;43.850;25.948;2023-06-24T05:34:54;101014.84;;;31.95;39.73
71344;BME280;59146;43.850;25.948;2023-06-24T05:37:19;100991.03;;;32.10;39.20
71344;BME280;59146;43.850;25.948;2023-06-24T05:39:44;101000.41;;;31.76;39.38
71344;BME280;59146;43.850;25.948;2023-06-24T05:42:10;100984.13;;;31.89;39.31
71344;BME280;59146;43.850;25.948;2023-06-24T05:44:35;101007.19;;;31.92;39.48
71344;BME280;59146;43.850;25.948;2023-06-24T05:47:01;100993.72;;;31.54;39.82
71344;BME280;59146;43.850;25.948;2023-06-24T05:49:26;101001.28;;;31.32;40.27
71344;BME280;59146;43.850;25.948;2023-06-24T05:51:52;101004.19;;;31.44;40.01
71344;BME280;59146;43.850;25.948;2023-06-24T05:54:17;100996.28;;;31.74;39.49
71344;BME280;59146;43.850;25.948;2023-06-24T05:56:42;101018.41;;;31.89;38.58
71344;BME280;59146;43.850;25.948;2023-06-24T05:59:08;101000.97;;;31.85;39.02
71344;BME280;59146;43.850;25.948;2023-06-24T06:01:33;100966.19;;;31.70;38.62
71344;BME280;59146;43.850;25.948;2023-06-24T06:03:59;101018.50;;;32.07;38.93
71344;BME280;59146;43.850;25.948;2023-06-24T06:06:24;101015.66;;;32.02;38.47
71344;BME280;59146;43.850;25.948;2023-06-24T06:08:50;100955.84;;;31.92;37.58
71344;BME280;59146;43.850;25.948;2023-06-24T06:11:15;101001.84;;;32.35;38.24
71344;BME280;59146;43.850;25.948;2023-06-24T06:13:41;100978.47;;;31.97;38.32
71344;BME280;59146;43.850;25.948;2023-06-24T06:16:06;100953.88;;;32.05;38.55
71344;BME280;59146;43.850;25.948;2023-06-24T06:18:32;101008.50;;;32.32;37.83
71344;BME280;59146;43.850;25.948;2023-06-24T06:20:58;100978.56;;;32.34;37.96
71344;BME280;59146;43.850;25.948;2023-06-24T06:23:23;101005.81;;;32.57;37.91
71344;BME280;59146;43.850;25.948;2023-06-24T06:25:49;101032.63;;;32.76;37.65
71344;BME280;59146;43.850;25.948;2023-06-24T06:28:15;101014.88;;;33.05;36.61
71344;BME280;59146;43.850;25.948;2023-06-24T06:30:40;101004.13;;;32.99;36.04
71344;BME280;59146;43.850;25.948;2023-06-24T06:33:06;100981.63;;;32.62;36.47
71344;BME280;59146;43.850;25.948;2023-06-24T06:35:31;101025.47;;;32.64;37.76
71344;BME280;59146;43.850;25.948;2023-06-24T06:37:59;101036.63;;;32.92;37.10
71344;BME280;59146;43.850;25.948;2023-06-24T06:40:25;101052.34;;;33.38;36.14
71344;BME280;59146;43.850;25.948;2023-06-24T06:42:53;101037.53;;;33.40;35.46
71344;BME280;59146;43.850;25.948;2023-06-24T06:45:18;101021.28;;;33.22;35.79
71344;BME280;59146;43.850;25.948;2023-06-24T06:47:44;100981.59;;;33.64;34.90
71344;BME280;59146;43.850;25.948;2023-06-24T06:50:09;100994.38;;;33.98;34.40
71344;BME280;59146;43.850;25.948;2023-06-24T06:52:35;101021.63;;;34.15;35.93
71344;BME280;59146;43.850;25.948;2023-06-24T06:55:00;100973.09;;;34.02;34.54
71344;BME280;59146;43.850;25.948;2023-06-24T06:57:25;101018.69;;;34.28;34.89
71344;BME280;59146;43.850;25.948;2023-06-24T06:59:51;100979.25;;;33.79;36.50
71344;BME280;59146;43.850;25.948;2023-06-24T07:02:17;101026.28;;;33.85;37.17
71344;BME280;59146;43.850;25.948;2023-06-24T07:04:43;101006.13;;;33.92;35.23
71344;BME280;59146;43.850;25.948;2023-06-24T07:07:09;101033.97;;;33.99;35.56
71344;BME280;59146;43.850;25.948;2023-06-24T07:09:35;101026.97;;;33.92;36.59
71344;BME280;59146;43.850;25.948;2023-06-24T07:12:01;100973.88;;;33.91;35.60
71344;BME280;59146;43.850;25.948;2023-06-24T07:14:26;101016.94;;;34.22;35.54
71344;BME280;59146;43.850;25.948;2023-06-24T07:16:52;100990.28;;;34.19;35.95
71344;BME280;59146;43.850;25.948;2023-06-24T07:19:17;100974.13;;;34.12;35.38
71344;BME280;59146;43.850;25.948;2023-06-24T07:21:42;100998.56;;;34.24;35.60
71344;BME280;59146;43.850;25.948;2023-06-24T07:24:08;101006.81;;;34.29;35.60
71344;BME280;59146;43.850;25.948;2023-06-24T07:26:33;100922.81;;;33.64;35.59
71344;BME280;59146;43.850;25.948;2023-06-24T07:28:59;100987.47;;;34.37;35.58
71344;BME280;59146;43.850;25.948;2023-06-24T07:31:24;100992.91;;;34.60;34.88
71344;BME280;59146;43.850;25.948;2023-06-24T07:33:50;100983.59;;;34.33;34.16
71344;BME280;59146;43.850;25.948;2023-06-24T07:36:15;100986.53;;;34.43;34.88
71344;BME280;59146;43.850;25.948;2023-06-24T07:38:42;100970.72;;;34.63;34.31
71344;BME280;59146;43.850;25.948;2023-06-24T07:41:07;100939.59;;;34.42;33.92
71344;BME280;59146;43.850;25.948;2023-06-24T07:43:33;100948.88;;;34.70;34.25
71344;BME280;59146;43.850;25.948;2023-06-24T07:45:58;100989.41;;;35.28;34.40
71344;BME280;59146;43.850;25.948;2023-06-24T07:48:23;100983.81;;;35.17;36.14
71344;BME280;59146;43.850;25.948;2023-06-24T07:50:49;100951.38;;;34.60;35.03
71344;BME280;59146;43.850;25.948;2023-06-24T07:53:14;100970.72;;;34.75;34.80
71344;BME280;59146;43.850;25.948;2023-06-24T07:55:40;100945.13;;;34.71;35.18
71344;BME280;59146;43.850;25.948;2023-06-24T07:58:05;100946.00;;;34.88;34.07
71344;BME280;59146;43.850;25.948;2023-06-24T08:00:31;100927.19;;;35.09;33.07
71344;BME280;59146;43.850;25.948;2023-06-24T08:03:00;100966.72;;;35.62;31.67
71344;BME280;59146;43.850;25.948;2023-06-24T08:05:25;100961.97;;;35.41;32.78
71344;BME280;59146;43.850;25.948;2023-06-24T08:07:51;100948.81;;;35.61;32.06
71344;BME280;59146;43.850;25.948;2023-06-24T08:10:17;100926.25;;;35.32;32.42
71344;BME280;59146;43.850;25.948;2023-06-24T08:12:43;100985.59;;;35.85;31.56
71344;BME280;59146;43.850;25.948;2023-06-24T08:15:08;100954.66;;;35.86;31.48
71344;BME280;59146;43.850;25.948;2023-06-24T08:17:34;100958.56;;;36.28;29.85
71344;BME280;59146;43.850;25.948;2023-06-24T08:20:01;100978.84;;;36.76;26.41
71344;BME280;59146;43.850;25.948;2023-06-24T08:22:27;100933.72;;;36.03;26.65
71344;BME280;59146;43.850;25.948;2023-06-24T08:24:52;100930.09;;;35.81;26.24
71344;BME280;59146;43.850;25.948;2023-06-24T08:27:17;100937.69;;;35.79;26.62
71344;BME280;59146;43.850;25.948;2023-06-24T08:29:43;100959.19;;;35.36;26.71
71344;BME280;59146;43.850;25.948;2023-06-24T08:32:09;100985.84;;;35.39;27.24
71344;BME280;59146;43.850;25.948;2023-06-24T08:34:34;100939.88;;;35.49;26.81
71344;BME280;59146;43.850;25.948;2023-06-24T08:36:59;100941.13;;;35.91;26.94
71344;BME280;59146;43.850;25.948;2023-06-24T08:39:25;100975.59;;;36.02;25.81
71344;BME280;59146;43.850;25.948;2023-06-24T08:41:51;100937.16;;;35.49;25.98
71344;BME280;59146;43.850;25.948;2023-06-24T08:44:16;100957.88;;;35.10;26.95
71344;BME280;59146;43.850;25.948;2023-06-24T08:46:42;100941.41;;;34.88;27.50
71344;BME280;59146;43.850;25.948;2023-06-24T08:51:58;100940.06;;;34.28;28.79
71344;BME280;59146;43.850;25.948;2023-06-24T08:54:25;100897.84;;;34.67;27.11
71344;BME280;59146;43.850;25.948;2023-06-24T08:56:52;100934.34;;;34.87;25.95
71344;BME280;59146;43.850;25.948;2023-06-24T08:59:18;100938.69;;;34.88;24.97
71344;BME280;59146;43.850;25.948;2023-06-24T09:01:49;100893.44;;;35.05;25.25
71344;BME280;59146;43.850;25.948;2023-06-24T09:04:15;100937.69;;;35.62;24.64
71344;BME280;59146;43.850;25.948;2023-06-24T09:06:40;100930.69;;;35.38;23.42
71344;BME280;59146;43.850;25.948;2023-06-24T09:09:20;100915.63;;;35.02;23.19
71344;BME280;59146;43.850;25.948;2023-06-24T09:11:53;100957.63;;;35.11;22.96
71344;BME280;59146;43.850;25.948;2023-06-24T09:14:18;100950.63;;;34.87;23.00
71344;BME280;59146;43.850;25.948;2023-06-24T09:17:00;100950.47;;;35.34;22.68
71344;BME280;59146;43.850;25.948;2023-06-24T09:19:31;100911.88;;;34.64;23.40
71344;BME280;59146;43.850;25.948;2023-06-24T09:22:03;100899.16;;;34.53;23.63
71344;BME280;59146;43.850;25.948;2023-06-24T09:24:36;100920.59;;;34.66;23.82
71344;BME280;59146;43.850;25.948;2023-06-24T09:27:02;100888.16;;;34.59;23.84
71344;BME280;59146;43.850;25.948;2023-06-24T09:29:32;100944.97;;;34.77;24.03
71344;BME280;59146;43.850;25.948;2023-06-24T09:31:59;100948.28;;;35.19;24.13
71344;BME280;59146;43.850;25.948;2023-06-24T09:34:26;100895.38;;;35.22;23.29
71344;BME280;59146;43.850;25.948;2023-06-24T09:36:56;100926.13;;;35.72;21.98
71344;BME280;59146;43.850;25.948;2023-06-24T09:39:23;100922.13;;;35.30;22.35
71344;BME280;59146;43.850;25.948;2023-06-24T09:42:00;100825.69;;;34.54;22.37
71344;BME280;59146;43.850;25.948;2023-06-24T09:44:29;100830.41;;;34.47;23.08
71344;BME280;59146;43.850;25.948;2023-06-24T09:46:55;100936.31;;;35.32;22.87
71344;BME280;59146;43.850;25.948;2023-06-24T09:49:21;100851.09;;;35.04;22.61
71344;BME280;59146;43.850;25.948;2023-06-24T09:51:49;100916.53;;;35.36;21.98
71344;BME280;59146;43.850;25.948;2023-06-24T09:54:15;100947.91;;;35.44;22.12
71344;BME280;59146;43.850;25.948;2023-06-24T09:56:52;100948.59;;;35.51;22.05
71344;BME280;59146;43.850;25.948;2023-06-24T09:59:19;100889.72;;;35.40;22.01
71344;BME280;59146;43.850;25.948;2023-06-24T10:01:46;100919.19;;;35.31;22.32
71344;BME280;59146;43.850;25.948;2023-06-24T10:04:16;100908.00;;;34.99;22.61
71344;BME280;59146;43.850;25.948;2023-06-24T10:06:42;100908.00;;;34.99;22.96
71344;BME280;59146;43.850;25.948;2023-06-24T10:09:08;100908.81;;;34.88;23.44
71344;BME280;59146;43.850;25.948;2023-06-24T10:11:34;100917.66;;;35.24;23.19
71344;BME280;59146;43.850;25.948;2023-06-24T10:13:59;100919.50;;;35.63;23.49
71344;BME280;59146;43.850;25.948;2023-06-24T10:16:25;100888.84;;;35.51;23.70
71344;BME280;59146;43.850;25.948;2023-06-24T10:18:51;100922.63;;;35.27;24.38
71344;BME280;59146;43.850;25.948;2023-06-24T10:21:16;100921.63;;;35.33;24.37
71344;BME280;59146;43.850;25.948;2023-06-24T10:23:43;100943.53;;;35.54;24.24
71344;BME280;59146;43.850;25.948;2023-06-24T10:26:30;100888.78;;;34.89;24.71
71344;BME280;59146;43.850;25.948;2023-06-24T10:31:55;100936.53;;;35.75;25.11
71344;BME280;59146;43.850;25.948;2023-06-24T10:34:32;100924.50;;;35.71;25.11
71344;BME280;59146;43.850;25.948;2023-06-24T10:42:29;100883.75;;;35.09;24.07
71344;BME280;59146;43.850;25.948;2023-06-24T10:44:59;100905.00;;;35.12;24.97
71344;BME280;59146;43.850;25.948;2023-06-24T10:47:26;100877.56;;;34.46;25.63
71344;BME280;59146;43.850;25.948;2023-06-24T10:49:52;100880.75;;;34.43;25.33
71344;BME280;59146;43.850;25.948;2023-06-24T10:52:21;100909.53;;;34.95;25.02
71344;BME280;59146;43.850;25.948;2023-06-24T10:54:48;100926.72;;;35.12;25.10
71344;BME280;59146;43.850;25.948;2023-06-24T10:57:13;100924.50;;;34.98;25.21
71344;BME280;59146;43.850;25.948;2023-06-24T10:59:40;100882.66;;;34.82;25.59
71344;BME280;59146;43.850;25.948;2023-06-24T11:02:06;100886.66;;;35.36;25.05
71344;BME280;59146;43.850;25.948;2023-06-24T11:04:32;100864.94;;;35.36;24.66
71344;BME280;59146;43.850;25.948;2023-06-24T11:06:58;100909.41;;;35.47;24.92
71344;BME280;59146;43.850;25.948;2023-06-24T11:09:24;100846.34;;;35.45;24.55
71344;BME280;59146;43.850;25.948;2023-06-24T11:11:49;100852.38;;;35.47;24.05
71344;BME280;59146;43.850;25.948;2023-06-24T11:14:21;100902.09;;;35.47;24.46
71344;BME280;59146;43.850;25.948;2023-06-24T11:16:47;100884.72;;;35.32;24.81
71344;BME280;59146;43.850;25.948;2023-06-24T11:19:12;100887.28;;;35.55;24.44
71344;BME280;59146;43.850;25.948;2023-06-24T11:21:38;100870.59;;;35.63;24.24
71344;BME280;59146;43.850;25.948;2023-06-24T11:24:03;100875.06;;;35.90;24.33
71344;BME280;59146;43.850;25.948;2023-06-24T11:26:29;100856.75;;;36.19;23.80
71344;BME280;59146;43.850;25.948;2023-06-24T11:28:55;100894.41;;;36.71;23.79
71344;BME280;59146;43.850;25.948;2023-06-24T11:31:26;100883.38;;;36.17;23.21
71344;BME280;59146;43.850;25.948;2023-06-24T11:33:52;100906.47;;;36.53;23.24
71344;BME280;59146;43.850;25.948;2023-06-24T11:36:18;100882.50;;;36.33;22.98
71344;BME280;59146;43.850;25.948;2023-06-24T11:38:47;100873.47;;;36.71;22.89
71344;BME280;59146;43.850;25.948;2023-06-24T11:41:13;100869.88;;;36.65;22.76
71344;BME280;59146;43.850;25.948;2023-06-24T11:43:44;100862.97;;;36.36;22.92
71344;BME280;59146;43.850;25.948;2023-06-24T11:46:10;100841.66;;;35.90;23.68
71344;BME280;59146;43.850;25.948;2023-06-24T11:48:41;100844.44;;;35.95;23.64
71344;BME280;59146;43.850;25.948;2023-06-24T11:51:16;100829.69;;;35.91;23.71
71344;BME280;59146;43.850;25.948;2023-06-24T11:53:43;100863.38;;;36.07;23.20
71344;BME280;59146;43.850;25.948;2023-06-24T11:56:09;100848.47;;;36.31;22.85
71344;BME280;59146;43.850;25.948;2023-06-24T11:58:35;100819.88;;;36.28;23.17
71344;BME280;59146;43.850;25.948;2023-06-24T12:01:01;100713.50;;;35.98;22.37
71344;BME280;59146;43.850;25.948;2023-06-24T12:03:28;100813.88;;;36.70;22.31
71344;BME280;59146;43.850;25.948;2023-06-24T12:05:54;100845.59;;;36.59;23.06
71344;BME280;59146;43.850;25.948;2023-06-24T12:08:20;100803.13;;;36.36;23.24
71344;BME280;59146;43.850;25.948;2023-06-24T12:10:47;100782.66;;;36.07;23.57
71344;BME280;59146;43.850;25.948;2023-06-24T12:13:13;100792.56;;;36.40;22.93
71344;BME280;59146;43.850;25.948;2023-06-24T12:15:38;100789.78;;;36.56;23.15
71344;BME280;59146;43.850;25.948;2023-06-24T12:18:04;100806.41;;;36.17;23.28
71344;BME280;59146;43.850;25.948;2023-06-24T12:20:30;100795.66;;;36.05;23.53
71344;BME280;59146;43.850;25.948;2023-06-24T12:22:57;100719.09;;;36.13;22.97
71344;BME280;59146;43.850;25.948;2023-06-24T12:25:22;100801.47;;;36.84;23.03
71344;BME280;59146;43.850;25.948;2023-06-24T12:27:48;100748.97;;;36.56;23.13
71344;BME280;59146;43.850;25.948;2023-06-24T12:30:13;100765.81;;;36.80;23.38
71344;BME280;59146;43.850;25.948;2023-06-24T12:32:39;100804.88;;;37.27;22.37
71344;BME280;59146;43.850;25.948;2023-06-24T12:35:05;100781.47;;;37.26;22.30
71344;BME280;59146;43.850;25.948;2023-06-24T12:37:33;100752.22;;;37.12;22.12
71344;BME280;59146;43.850;25.948;2023-06-24T12:40:04;100739.47;;;36.59;22.78
71344;BME280;59146;43.850;25.948;2023-06-24T12:42:30;100775.22;;;36.94;22.86
71344;BME280;59146;43.850;25.948;2023-06-24T12:44:55;100780.09;;;36.92;22.79
71344;BME280;59146;43.850;25.948;2023-06-24T12:47:21;100745.31;;;36.99;23.37
71344;BME280;59146;43.850;25.948;2023-06-24T12:49:47;100773.72;;;37.45;22.10
71344;BME280;59146;43.850;25.948;2023-06-24T12:52:13;100744.69;;;37.24;22.39
71344;BME280;59146;43.850;25.948;2023-06-24T12:54:39;100732.59;;;36.83;23.01
71344;BME280;59146;43.850;25.948;2023-06-24T12:57:05;100744.81;;;36.27;23.32